Meadville, Pennsylvania
Current Conditions -  °F | °C
As of 10:53 AM on Sunday 21 Dec 2014 (Local Time) from KGKJ Reporting Station
Haze Haze  
Wind Chill: 29°   Ceiling: 2100
Heat Index: 29°   Visibility: 4mi
Dew Point: 23°   Wind: 0mph
Humidity: 78%   Direction: NA
Pressure: 30.29"   Gusts: NA
Location:  41.64°N, 80.15°W
Report Text: KGKJ 211553Z AUTO 00000KT 4SM HZ OVC021 M02/M05 A3029 RMK AO2 SLP273 T10171050 TSNO $
Loading
Personal Weather Stations






























Interactive Weather Map New forecast layout! Learn more

10-Day Weather Forecast

Advertisements
Track Severe Weather on mobile